createdAt,value
2017-10-15T00:00:22.212Z,13.18
2017-10-15T00:01:28.986Z,13.17
2017-10-15T00:02:35.762Z,13.16
2017-10-15T00:03:42.582Z,13.15
2017-10-15T00:04:49.353Z,13.14
2017-10-15T00:05:56.121Z,13.13
2017-10-15T00:07:02.898Z,13.13
2017-10-15T00:08:09.649Z,13.11
2017-10-15T00:09:16.457Z,13.10
2017-10-15T00:10:23.275Z,13.09
2017-10-15T00:11:30.108Z,13.09
2017-10-15T00:12:36.886Z,13.07
2017-10-15T00:13:43.678Z,13.07
2017-10-15T00:14:50.428Z,13.07
2017-10-15T00:15:57.570Z,13.05
2017-10-15T00:17:04.350Z,13.04
2017-10-15T00:18:11.122Z,13.03
2017-10-15T00:19:17.877Z,13.01
2017-10-15T00:20:24.650Z,13.03
2017-10-15T00:21:31.593Z,13.00
2017-10-15T00:22:38.190Z,13.00
2017-10-15T00:23:44.971Z,12.98
2017-10-15T00:24:51.868Z,12.98
2017-10-15T00:25:58.622Z,12.97
2017-10-15T00:27:05.430Z,12.97
2017-10-15T00:28:12.209Z,12.96
2017-10-15T00:29:18.965Z,12.97
2017-10-15T00:30:25.725Z,12.94
2017-10-15T00:31:32.599Z,12.93
2017-10-15T00:32:39.366Z,12.93
2017-10-15T00:33:46.133Z,12.92
2017-10-15T00:34:52.977Z,12.91
2017-10-15T00:35:59.745Z,12.90
2017-10-15T00:37:06.542Z,12.89
2017-10-15T00:38:13.317Z,12.87
2017-10-15T00:39:20.105Z,12.86
2017-10-15T00:40:26.877Z,12.86
2017-10-15T00:41:33.681Z,12.86
2017-10-15T00:42:40.455Z,12.83
2017-10-15T00:43:47.244Z,12.83
2017-10-15T00:44:54.077Z,12.83
2017-10-15T00:46:00.845Z,12.83
2017-10-15T00:47:07.629Z,12.82
2017-10-15T00:48:14.529Z,12.82
2017-10-15T00:49:21.331Z,12.81
2017-10-15T00:50:28.181Z,12.79
2017-10-15T00:51:34.974Z,12.80
2017-10-15T00:52:41.799Z,12.76
2017-10-15T00:53:48.545Z,12.78
2017-10-15T00:54:55.345Z,12.77
2017-10-15T00:56:02.114Z,12.75
2017-10-15T00:57:08.853Z,12.73
2017-10-15T00:58:15.723Z,12.73
2017-10-15T00:59:22.704Z,12.73
2017-10-15T01:00:29.621Z,12.74
2017-10-15T01:01:36.478Z,12.73
2017-10-15T01:02:43.261Z,12.71
2017-10-15T01:03:50.105Z,12.70
2017-10-15T01:04:56.903Z,12.69
2017-10-15T01:06:03.694Z,12.69
2017-10-15T01:07:14.497Z,12.68
2017-10-15T01:08:17.278Z,12.67
2017-10-15T01:09:28.012Z,12.65
2017-10-15T01:10:30.840Z,12.64
2017-10-15T01:11:37.621Z,12.63
2017-10-15T01:12:44.387Z,12.63
2017-10-15T01:13:51.173Z,12.62
2017-10-15T01:15:02.087Z,12.61
2017-10-15T01:16:04.908Z,12.62
2017-10-15T01:17:11.725Z,12.61
2017-10-15T01:18:18.493Z,12.60
2017-10-15T01:19:25.284Z,12.60
2017-10-15T01:20:32.166Z,12.59
2017-10-15T01:21:39.021Z,12.57
2017-10-15T01:22:45.861Z,12.56
2017-10-15T01:23:52.834Z,12.55
2017-10-15T01:24:59.722Z,12.56
2017-10-15T01:26:06.585Z,12.54
2017-10-15T01:27:13.387Z,12.53
2017-10-15T01:28:20.226Z,12.53
2017-10-15T01:29:27.093Z,12.53
2017-10-15T01:30:33.976Z,12.51
2017-10-15T01:31:40.795Z,12.50
2017-10-15T01:32:47.690Z,12.50
2017-10-15T01:33:54.486Z,12.50
2017-10-15T01:35:01.331Z,12.49
2017-10-15T01:36:08.265Z,12.48
2017-10-15T01:37:15.177Z,12.48
2017-10-15T01:38:22.077Z,12.45
2017-10-15T01:39:28.934Z,12.46
2017-10-15T01:40:35.841Z,12.44
2017-10-15T01:41:42.688Z,12.44
2017-10-15T01:42:49.545Z,12.43
2017-10-15T01:43:56.368Z,12.42
2017-10-15T01:45:03.758Z,12.42
2017-10-15T01:46:10.137Z,12.41
2017-10-15T01:47:17.001Z,12.39
2017-10-15T01:48:23.813Z,12.39
2017-10-15T01:49:30.689Z,12.38
2017-10-15T01:50:37.525Z,12.38
2017-10-15T01:51:44.394Z,12.37
2017-10-15T01:52:51.293Z,12.36
2017-10-15T01:53:58.310Z,12.36
2017-10-15T01:55:05.141Z,12.35
2017-10-15T01:56:11.982Z,12.34
2017-10-15T01:57:18.872Z,12.33
2017-10-15T01:58:25.710Z,12.33
2017-10-15T01:59:32.893Z,12.33
2017-10-15T02:00:39.714Z,12.32
2017-10-15T02:01:46.667Z,12.30
2017-10-15T02:02:53.566Z,12.30
2017-10-15T02:04:00.340Z,12.29
2017-10-15T02:05:07.112Z,12.29
2017-10-15T02:06:13.906Z,12.28
2017-10-15T02:07:20.705Z,12.28
2017-10-15T02:08:27.578Z,12.27
2017-10-15T02:09:34.362Z,12.25
2017-10-15T02:10:41.173Z,12.27
2017-10-15T02:11:47.965Z,12.24
2017-10-15T02:12:54.737Z,12.23
2017-10-15T02:14:01.636Z,12.21
2017-10-15T02:15:08.481Z,12.20
2017-10-15T02:16:15.343Z,12.21
2017-10-15T02:17:22.213Z,12.20
2017-10-15T02:18:29.045Z,12.20
2017-10-15T02:19:35.979Z,12.20
2017-10-15T02:20:42.758Z,12.18
2017-10-15T02:21:49.558Z,12.18
2017-10-15T02:22:56.319Z,12.17
2017-10-15T02:24:03.116Z,12.17
2017-10-15T02:25:09.930Z,12.16
2017-10-15T02:26:16.698Z,12.16
2017-10-15T02:27:23.489Z,12.14
2017-10-15T02:28:30.273Z,12.12
2017-10-15T02:29:37.015Z,12.13
2017-10-15T02:30:43.799Z,12.12
2017-10-15T02:31:50.585Z,12.11
2017-10-15T02:32:57.358Z,12.11
2017-10-15T02:34:04.142Z,12.10
2017-10-15T02:35:10.937Z,12.10
2017-10-15T02:36:18.008Z,12.09
2017-10-15T02:37:24.781Z,12.09
2017-10-15T02:38:31.604Z,12.07
2017-10-15T02:39:38.401Z,12.07
2017-10-15T02:40:45.212Z,12.07
2017-10-15T02:41:51.999Z,12.07
2017-10-15T02:42:58.834Z,12.05
2017-10-15T02:44:05.681Z,12.05
2017-10-15T02:45:12.526Z,12.03
2017-10-15T02:46:19.303Z,12.03
2017-10-15T02:47:26.230Z,12.02
2017-10-15T02:48:33.029Z,12.02
2017-10-15T02:49:39.792Z,12.02
2017-10-15T02:50:46.593Z,12.02
2017-10-15T02:51:53.445Z,12.01
2017-10-15T02:53:00.283Z,11.99
2017-10-15T02:54:07.138Z,11.99
2017-10-15T02:55:13.929Z,11.99
2017-10-15T02:56:20.688Z,11.99
2017-10-15T02:57:27.461Z,11.99
2017-10-15T02:58:34.538Z,11.98
2017-10-15T02:59:41.334Z,11.97
2017-10-15T03:00:48.148Z,11.96
2017-10-15T03:01:54.922Z,11.95
2017-10-15T03:03:01.737Z,11.94
2017-10-15T03:04:08.492Z,11.94
2017-10-15T03:05:15.256Z,11.94
2017-10-15T03:06:22.033Z,11.93
2017-10-15T03:07:28.787Z,11.91
2017-10-15T03:08:35.618Z,11.92
2017-10-15T03:09:42.473Z,11.90
2017-10-15T03:10:49.349Z,11.90
2017-10-15T03:11:56.136Z,11.90
2017-10-15T03:13:02.912Z,11.89
2017-10-15T03:14:09.716Z,11.89
2017-10-15T03:15:16.502Z,11.89
2017-10-15T03:16:23.289Z,11.88
2017-10-15T03:17:30.082Z,11.87
2017-10-15T03:18:36.875Z,11.87
2017-10-15T03:19:43.773Z,11.85
2017-10-15T03:20:50.928Z,11.85
2017-10-15T03:21:57.725Z,11.85
2017-10-15T03:23:04.480Z,11.86
2017-10-15T03:24:11.274Z,11.83
2017-10-15T03:25:18.058Z,11.83
2017-10-15T03:26:24.811Z,11.81
2017-10-15T03:27:31.610Z,11.83
2017-10-15T03:28:38.409Z,11.82
2017-10-15T03:29:45.178Z,11.81
2017-10-15T03:30:51.979Z,11.80
2017-10-15T03:31:58.793Z,11.79
2017-10-15T03:33:05.643Z,11.78
2017-10-15T03:34:12.415Z,11.77
2017-10-15T03:35:19.246Z,11.77
2017-10-15T03:36:26.077Z,11.77
2017-10-15T03:37:32.948Z,11.76
2017-10-15T03:38:39.867Z,11.75
2017-10-15T03:39:46.681Z,11.76
2017-10-15T03:40:53.546Z,11.74
2017-10-15T03:42:00.317Z,11.75
2017-10-15T03:43:07.162Z,11.75
2017-10-15T03:44:13.981Z,11.73
2017-10-15T03:45:20.833Z,11.72
2017-10-15T03:46:27.639Z,11.73
2017-10-15T03:47:34.413Z,11.72
2017-10-15T03:48:41.185Z,11.72
2017-10-15T03:49:47.985Z,11.72
2017-10-15T03:50:54.778Z,11.72
2017-10-15T03:52:01.707Z,11.70
2017-10-15T03:53:08.494Z,11.70
2017-10-15T03:54:15.294Z,11.70
2017-10-15T03:55:22.160Z,11.68
2017-10-15T03:56:28.945Z,11.69
2017-10-15T03:57:35.760Z,11.68
2017-10-15T03:58:42.543Z,11.68
2017-10-15T03:59:49.390Z,11.69
2017-10-15T04:00:56.185Z,11.68
2017-10-15T04:02:03.026Z,11.67
2017-10-15T04:03:09.825Z,11.67
2017-10-15T04:04:16.637Z,11.66
2017-10-15T04:05:23.405Z,11.65
2017-10-15T04:06:30.202Z,11.64
2017-10-15T04:07:36.985Z,11.65
2017-10-15T04:08:43.773Z,11.64
2017-10-15T04:09:50.567Z,11.63
2017-10-15T04:10:57.355Z,11.62
2017-10-15T04:12:04.178Z,11.62
2017-10-15T04:13:11.196Z,11.61
2017-10-15T04:14:18.037Z,11.62
2017-10-15T04:15:24.897Z,11.61
2017-10-15T04:16:31.791Z,11.60
2017-10-15T04:17:38.629Z,11.60
2017-10-15T04:18:45.654Z,11.58
2017-10-15T04:19:52.503Z,11.59
2017-10-15T04:20:59.629Z,11.58
2017-10-15T04:22:06.462Z,11.59
2017-10-15T04:23:13.285Z,11.58
2017-10-15T04:24:20.189Z,11.58
2017-10-15T04:25:28.363Z,11.57
2017-10-15T04:26:34.197Z,11.55
2017-10-15T04:27:41.030Z,11.56
2017-10-15T04:28:47.909Z,11.55
2017-10-15T04:29:54.853Z,11.55
2017-10-15T04:31:01.714Z,11.55
2017-10-15T04:32:08.492Z,11.54
2017-10-15T04:33:15.340Z,11.56
2017-10-15T04:34:22.130Z,11.54
2017-10-15T04:35:28.941Z,11.53
2017-10-15T04:36:35.722Z,11.53
2017-10-15T04:37:42.506Z,11.52
2017-10-15T04:38:49.286Z,11.52
2017-10-15T04:39:56.057Z,11.52
2017-10-15T04:41:02.865Z,11.51
2017-10-15T04:42:09.674Z,11.50
2017-10-15T04:43:16.561Z,11.50
2017-10-15T04:44:23.390Z,11.50
2017-10-15T04:45:30.278Z,11.49
2017-10-15T04:46:37.062Z,11.50
2017-10-15T04:47:43.837Z,11.49
2017-10-15T04:48:50.721Z,11.48
2017-10-15T04:49:57.514Z,11.49
2017-10-15T04:51:04.398Z,11.47
2017-10-15T04:52:11.217Z,11.47
2017-10-15T04:53:18.079Z,11.47
2017-10-15T04:54:24.861Z,11.45
2017-10-15T04:55:31.674Z,11.45
2017-10-15T04:56:38.482Z,11.46
2017-10-15T04:57:45.766Z,11.45
2017-10-15T04:58:52.149Z,11.45
2017-10-15T04:59:58.952Z,11.43
2017-10-15T05:01:05.775Z,11.43
2017-10-15T05:02:12.557Z,11.41
2017-10-15T05:03:19.357Z,11.43
2017-10-15T05:04:26.226Z,11.42
2017-10-15T05:05:33.006Z,11.42
2017-10-15T05:06:39.844Z,11.41
2017-10-15T05:07:46.758Z,11.41
2017-10-15T05:08:53.522Z,11.40
2017-10-15T05:10:00.311Z,11.40
2017-10-15T05:11:07.219Z,11.39
2017-10-15T05:12:14.010Z,11.39
2017-10-15T05:13:20.851Z,11.39
2017-10-15T05:14:27.762Z,11.39
2017-10-15T05:15:34.592Z,11.39
2017-10-15T05:16:41.494Z,11.39
2017-10-15T05:17:48.298Z,11.39
2017-10-15T05:18:55.181Z,11.38
2017-10-15T05:20:02.031Z,11.38
2017-10-15T05:21:08.927Z,11.38
2017-10-15T05:22:15.829Z,11.37
2017-10-15T05:23:22.619Z,11.38
2017-10-15T05:24:29.427Z,11.36
2017-10-15T05:25:36.229Z,11.36
2017-10-15T05:26:43.078Z,11.36
2017-10-15T05:27:49.932Z,11.35
2017-10-15T05:28:56.909Z,11.35
2017-10-15T05:30:04.798Z,11.36
2017-10-15T05:31:10.594Z,11.34
2017-10-15T05:32:17.669Z,11.33
2017-10-15T05:33:24.635Z,11.35
2017-10-15T05:34:31.501Z,11.32
2017-10-15T05:35:38.390Z,11.32
2017-10-15T05:36:45.368Z,11.32
2017-10-15T05:37:52.234Z,11.33
2017-10-15T05:38:59.193Z,11.30
2017-10-15T05:40:06.050Z,11.31
2017-10-15T05:41:12.871Z,11.31
2017-10-15T05:42:20.771Z,11.31
2017-10-15T05:43:26.769Z,11.30
2017-10-15T05:44:33.665Z,11.29
2017-10-15T05:45:40.490Z,11.30
2017-10-15T05:46:47.382Z,11.29
2017-10-15T05:47:54.481Z,11.29
2017-10-15T05:49:01.338Z,11.27
2017-10-15T05:50:08.130Z,11.27
2017-10-15T05:51:14.963Z,11.28
2017-10-15T05:52:21.789Z,11.27
2017-10-15T05:53:28.612Z,11.28
2017-10-15T05:54:35.458Z,11.27
2017-10-15T05:55:42.286Z,11.26
2017-10-15T05:56:49.180Z,11.27
2017-10-15T05:57:56.025Z,11.25
2017-10-15T05:59:02.812Z,11.26
2017-10-15T06:00:09.607Z,11.26
2017-10-15T06:01:16.445Z,11.26
2017-10-15T06:02:23.312Z,11.25
2017-10-15T06:03:30.417Z,11.23
2017-10-15T06:04:37.221Z,11.23
2017-10-15T06:05:44.006Z,11.23
2017-10-15T06:06:50.831Z,11.25
2017-10-15T06:07:57.721Z,11.24
2017-10-15T06:09:04.506Z,11.24
2017-10-15T06:10:11.695Z,11.22
2017-10-15T06:11:18.503Z,11.23
2017-10-15T06:12:25.398Z,11.22
2017-10-15T06:13:32.345Z,11.21
2017-10-15T06:14:38.905Z,11.21
2017-10-15T06:15:45.976Z,11.20
2017-10-15T06:16:52.933Z,11.21
2017-10-15T06:17:59.857Z,11.20
2017-10-15T06:19:06.654Z,11.18
2017-10-15T06:20:13.469Z,11.18
2017-10-15T06:21:20.374Z,11.18
2017-10-15T06:22:27.288Z,11.18
2017-10-15T06:23:34.135Z,11.18
2017-10-15T06:24:40.968Z,11.19
2017-10-15T06:25:47.762Z,11.18
2017-10-15T06:26:54.637Z,11.18
2017-10-15T06:28:01.539Z,11.18
2017-10-15T06:29:08.341Z,11.17
2017-10-15T06:30:15.138Z,11.17
2017-10-15T06:31:21.964Z,11.16
2017-10-15T06:32:28.766Z,11.15
2017-10-15T06:33:35.601Z,11.16
2017-10-15T06:34:42.381Z,11.14
2017-10-15T06:35:49.198Z,11.14
2017-10-15T06:36:56.122Z,11.14
2017-10-15T06:38:02.900Z,11.14
2017-10-15T06:39:09.703Z,11.14
2017-10-15T06:40:16.596Z,11.13
2017-10-15T06:41:23.434Z,11.12
2017-10-15T06:42:30.221Z,11.11
2017-10-15T06:43:37.066Z,11.13
2017-10-15T06:44:43.867Z,11.10
2017-10-15T06:45:50.729Z,11.12
2017-10-15T06:46:57.613Z,11.11
2017-10-15T06:48:04.815Z,11.11
2017-10-15T06:49:11.650Z,11.11
2017-10-15T06:50:18.433Z,11.10
2017-10-15T06:51:25.220Z,11.09
2017-10-15T06:52:32.110Z,11.09
2017-10-15T06:53:39.081Z,11.08
2017-10-15T06:54:45.870Z,11.09
2017-10-15T06:55:52.658Z,11.09
2017-10-15T06:56:59.537Z,11.08
2017-10-15T06:58:06.328Z,11.10
2017-10-15T06:59:13.164Z,11.09
2017-10-15T07:00:19.993Z,11.07
2017-10-15T07:01:26.809Z,11.08
2017-10-15T07:02:33.717Z,11.07
2017-10-15T07:03:40.497Z,11.07
2017-10-15T07:04:47.367Z,11.06
2017-10-15T07:05:54.153Z,11.06
2017-10-15T07:07:00.951Z,11.05
2017-10-15T07:08:07.764Z,11.06
2017-10-15T07:09:14.573Z,11.06
2017-10-15T07:10:21.413Z,11.05
2017-10-15T07:11:28.210Z,11.05
2017-10-15T07:12:34.985Z,11.05
2017-10-15T07:13:41.789Z,11.05
2017-10-15T07:14:48.634Z,11.05
2017-10-15T07:15:55.500Z,11.03
2017-10-15T07:17:02.326Z,11.03
2017-10-15T07:18:09.217Z,11.02
2017-10-15T07:19:16.002Z,11.03
2017-10-15T07:20:22.793Z,11.03
2017-10-15T07:21:29.581Z,11.05
2017-10-15T07:22:36.396Z,11.04
2017-10-15T07:23:43.272Z,11.03
2017-10-15T07:24:50.101Z,11.02
2017-10-15T07:25:57.141Z,11.03
2017-10-15T07:27:04.026Z,11.03
2017-10-15T07:28:10.834Z,11.02
2017-10-15T07:29:17.652Z,11.02
2017-10-15T07:30:24.497Z,11.02
2017-10-15T07:31:31.281Z,11.03
2017-10-15T07:32:38.097Z,11.03
2017-10-15T07:33:44.978Z,11.02
2017-10-15T07:34:51.832Z,11.01
2017-10-15T07:35:58.618Z,11.02
2017-10-15T07:37:05.433Z,11.02
2017-10-15T07:38:12.201Z,11.02
2017-10-15T07:39:19.096Z,11.03
2017-10-15T07:40:25.923Z,11.02
2017-10-15T07:41:33.216Z,11.02
2017-10-15T07:42:39.516Z,11.02
2017-10-15T07:43:46.431Z,11.03
2017-10-15T07:44:53.229Z,11.02
2017-10-15T07:46:00.101Z,11.03
2017-10-15T07:47:06.890Z,11.03
2017-10-15T07:48:13.667Z,11.01
2017-10-15T07:49:20.530Z,11.04
2017-10-15T07:50:27.361Z,11.03
2017-10-15T07:51:34.333Z,11.03
2017-10-15T07:52:41.154Z,11.02
2017-10-15T07:53:47.925Z,11.02
2017-10-15T07:54:54.721Z,11.02
2017-10-15T07:56:01.673Z,11.03
2017-10-15T07:57:08.779Z,11.03
2017-10-15T07:58:15.919Z,11.03
2017-10-15T07:59:22.938Z,11.04
2017-10-15T08:00:30.085Z,11.04
2017-10-15T08:01:37.013Z,11.04
2017-10-15T08:02:43.871Z,11.03
2017-10-15T08:03:50.785Z,11.03
2017-10-15T08:04:57.634Z,11.05
2017-10-15T08:06:04.530Z,11.04
2017-10-15T08:07:11.686Z,11.05
2017-10-15T08:08:18.466Z,11.06
2017-10-15T08:09:25.431Z,11.06
2017-10-15T08:10:32.559Z,11.05
2017-10-15T08:11:39.541Z,11.05
2017-10-15T08:12:46.429Z,11.06
2017-10-15T08:13:53.386Z,11.06
2017-10-15T08:15:00.276Z,11.06
2017-10-15T08:16:07.161Z,11.07
2017-10-15T08:17:14.094Z,11.07
2017-10-15T08:18:20.927Z,11.08
2017-10-15T08:19:27.918Z,11.08
2017-10-15T08:20:34.750Z,11.07
2017-10-15T08:21:41.632Z,11.07
2017-10-15T08:22:48.441Z,11.08
2017-10-15T08:23:55.293Z,11.10
2017-10-15T08:25:02.377Z,11.08
2017-10-15T08:26:09.168Z,11.10
2017-10-15T08:27:15.981Z,11.08
2017-10-15T08:28:22.754Z,11.08
2017-10-15T08:29:29.522Z,11.11
2017-10-15T08:30:36.401Z,11.11
2017-10-15T08:31:43.255Z,11.11
2017-10-15T08:32:50.017Z,11.11
2017-10-15T08:33:56.790Z,11.11
2017-10-15T08:35:03.621Z,11.12
2017-10-15T08:36:10.397Z,11.12
2017-10-15T08:37:17.213Z,11.13
2017-10-15T08:38:24.053Z,11.13
2017-10-15T08:39:30.833Z,11.16
2017-10-15T08:40:37.969Z,11.15
2017-10-15T08:41:44.401Z,11.17
2017-10-15T08:42:51.233Z,11.17
2017-10-15T08:43:58.110Z,11.17
2017-10-15T08:45:04.877Z,11.18
2017-10-15T08:46:11.745Z,11.20
2017-10-15T08:47:18.526Z,11.19
2017-10-15T08:48:25.346Z,11.20
2017-10-15T08:49:37.125Z,11.22
2017-10-15T08:50:38.916Z,11.21
2017-10-15T08:51:45.747Z,11.22
2017-10-15T08:52:52.579Z,11.23
2017-10-15T08:53:59.335Z,11.22
2017-10-15T08:55:06.109Z,11.25
2017-10-15T08:56:12.968Z,11.26
2017-10-15T08:57:19.777Z,11.24
2017-10-15T08:58:26.591Z,11.26
2017-10-15T08:59:33.910Z,11.27
2017-10-15T09:00:40.250Z,11.28
2017-10-15T09:01:47.090Z,11.29
2017-10-15T09:02:53.972Z,11.30
2017-10-15T09:04:00.799Z,11.31
2017-10-15T09:05:07.610Z,11.33
2017-10-15T09:06:14.401Z,11.32
2017-10-15T09:07:21.210Z,11.36
2017-10-15T09:08:28.178Z,11.35
2017-10-15T09:09:34.975Z,11.36
2017-10-15T09:10:41.774Z,11.38
2017-10-15T09:11:48.701Z,11.38
2017-10-15T09:12:55.529Z,11.41
2017-10-15T09:14:02.426Z,11.39
2017-10-15T09:15:09.233Z,11.43
2017-10-15T09:16:16.006Z,11.43
2017-10-15T09:17:22.890Z,11.45
2017-10-15T09:18:29.645Z,11.47
2017-10-15T09:19:36.694Z,11.47
2017-10-15T09:20:43.445Z,11.49
2017-10-15T09:21:50.264Z,11.51
2017-10-15T09:22:57.211Z,11.51
2017-10-15T09:24:03.850Z,11.53
2017-10-15T09:25:10.749Z,11.56
2017-10-15T09:26:17.549Z,11.58
2017-10-15T09:27:24.409Z,11.60
2017-10-15T09:28:31.278Z,11.60
2017-10-15T09:29:38.051Z,11.63
2017-10-15T09:30:44.949Z,11.64
2017-10-15T09:31:51.711Z,11.66
2017-10-15T09:32:58.570Z,11.69
2017-10-15T09:34:05.415Z,11.71
2017-10-15T09:35:12.155Z,11.72
2017-10-15T09:36:18.902Z,11.73
2017-10-15T09:37:25.773Z,11.74
2017-10-15T09:38:32.615Z,11.77
2017-10-15T09:39:39.365Z,11.80
2017-10-15T09:40:46.165Z,11.82
2017-10-15T09:41:53.058Z,11.84
2017-10-15T09:42:59.835Z,11.87
2017-10-15T09:44:06.737Z,11.88
2017-10-15T09:45:13.538Z,11.91
2017-10-15T09:46:20.441Z,11.92
2017-10-15T09:47:27.181Z,11.95
2017-10-15T09:48:33.973Z,11.97
2017-10-15T09:49:40.793Z,12.00
2017-10-15T09:50:47.538Z,12.02
2017-10-15T09:51:54.321Z,12.03
2017-10-15T09:53:01.165Z,12.05
2017-10-15T09:54:07.990Z,12.08
2017-10-15T09:55:14.782Z,12.11
2017-10-15T09:56:21.566Z,12.14
2017-10-15T09:57:28.337Z,12.17
2017-10-15T09:58:35.090Z,12.20
2017-10-15T09:59:41.818Z,12.23
2017-10-15T10:00:48.558Z,12.26
2017-10-15T10:01:55.337Z,12.29
2017-10-15T10:03:02.061Z,12.31
2017-10-15T10:04:08.813Z,12.36
2017-10-15T10:05:15.554Z,12.39
2017-10-15T10:06:22.327Z,12.41
2017-10-15T10:07:29.098Z,12.46
2017-10-15T10:08:35.949Z,12.48
2017-10-15T10:09:42.702Z,12.51
2017-10-15T10:10:49.479Z,12.54
2017-10-15T10:11:56.381Z,12.57
2017-10-15T10:13:03.198Z,12.60
2017-10-15T10:14:10.000Z,12.61
2017-10-15T10:15:16.754Z,12.67
2017-10-15T10:16:23.611Z,12.68
2017-10-15T10:17:30.391Z,12.71
2017-10-15T10:18:37.187Z,12.75
2017-10-15T10:19:43.961Z,12.75
2017-10-15T10:20:50.722Z,12.79
2017-10-15T10:21:57.489Z,12.81
2017-10-15T10:23:04.228Z,12.85
2017-10-15T10:24:11.101Z,12.87
2017-10-15T10:25:17.898Z,12.91
2017-10-15T10:26:24.756Z,12.94
2017-10-15T10:27:31.693Z,12.97
2017-10-15T10:28:38.534Z,12.99
2017-10-15T10:29:45.282Z,13.03
2017-10-15T10:30:52.043Z,13.06
2017-10-15T10:31:58.922Z,13.09
2017-10-15T10:33:05.702Z,13.13
2017-10-15T10:34:12.466Z,13.16
2017-10-15T10:35:19.298Z,13.18
2017-10-15T10:36:26.093Z,13.20
2017-10-15T10:37:32.850Z,13.26
2017-10-15T10:38:39.882Z,13.28
2017-10-15T10:39:46.673Z,13.30
2017-10-15T10:40:53.413Z,13.34
2017-10-15T10:42:00.159Z,13.37
2017-10-15T10:43:06.939Z,13.39
2017-10-15T10:44:13.782Z,13.41
2017-10-15T10:45:20.569Z,13.46
2017-10-15T10:46:27.533Z,13.49
2017-10-15T10:47:34.318Z,13.51
2017-10-15T10:48:41.069Z,13.56
2017-10-15T10:49:47.835Z,13.58
2017-10-15T10:50:54.598Z,13.61
2017-10-15T10:52:01.346Z,13.65
2017-10-15T10:53:08.157Z,13.68
2017-10-15T10:54:15.025Z,13.71
2017-10-15T10:55:21.912Z,13.76
2017-10-15T10:56:28.677Z,13.79
2017-10-15T10:57:35.594Z,13.81
2017-10-15T10:58:42.382Z,13.85
2017-10-15T10:59:49.182Z,13.89
2017-10-15T11:00:55.937Z,13.92
2017-10-15T11:02:02.720Z,13.96
2017-10-15T11:03:09.505Z,13.99
2017-10-15T11:04:16.273Z,14.02
2017-10-15T11:05:23.074Z,14.06
2017-10-15T11:06:29.849Z,14.10
2017-10-15T11:07:36.870Z,14.12
2017-10-15T11:08:43.609Z,14.17
2017-10-15T11:09:50.353Z,14.19
2017-10-15T11:10:57.108Z,14.22
2017-10-15T11:12:04.035Z,14.27
2017-10-15T11:13:10.815Z,14.30
2017-10-15T11:14:17.570Z,14.34
2017-10-15T11:15:24.470Z,14.37
2017-10-15T11:16:31.344Z,14.40
2017-10-15T11:17:38.218Z,14.43
2017-10-15T11:18:45.009Z,14.47
2017-10-15T11:19:51.778Z,14.50
2017-10-15T11:20:58.540Z,14.55
2017-10-15T11:22:05.367Z,14.58
2017-10-15T11:23:12.115Z,14.62
2017-10-15T11:24:18.917Z,14.65
2017-10-15T11:25:25.754Z,14.69
2017-10-15T11:26:32.587Z,14.72
2017-10-15T11:27:39.337Z,14.75
2017-10-15T11:28:46.098Z,14.80
2017-10-15T11:29:52.841Z,14.82
2017-10-15T11:30:59.649Z,14.87
2017-10-15T11:32:06.435Z,14.90
2017-10-15T11:33:13.605Z,14.93
2017-10-15T11:34:20.369Z,14.97
2017-10-15T11:35:27.127Z,15.01
2017-10-15T11:36:33.902Z,15.03
2017-10-15T11:37:40.765Z,15.08
2017-10-15T11:38:47.557Z,15.11
2017-10-15T11:39:54.332Z,15.15
2017-10-15T11:41:01.142Z,15.19
2017-10-15T11:42:07.982Z,15.21
2017-10-15T11:43:14.750Z,15.25
2017-10-15T11:44:21.754Z,15.29
2017-10-15T11:45:28.618Z,15.33
2017-10-15T11:46:35.446Z,15.36
2017-10-15T11:47:42.232Z,15.40
2017-10-15T11:48:49.006Z,15.43
2017-10-15T11:49:55.883Z,15.47
2017-10-15T11:51:02.739Z,15.51
2017-10-15T11:52:09.525Z,15.54
2017-10-15T11:53:16.355Z,15.58
2017-10-15T11:54:23.097Z,15.61
2017-10-15T11:55:29.991Z,15.64
2017-10-15T11:56:36.843Z,15.70
2017-10-15T11:57:43.633Z,15.71
2017-10-15T11:58:50.387Z,15.75
2017-10-15T11:59:57.174Z,15.78
2017-10-15T12:01:03.961Z,15.84
2017-10-15T12:02:10.799Z,15.85
2017-10-15T12:03:17.575Z,15.88
2017-10-15T12:04:24.378Z,15.92
2017-10-15T12:05:31.257Z,15.95
2017-10-15T12:06:38.026Z,15.99
2017-10-15T12:07:44.790Z,16.03
2017-10-15T12:08:51.609Z,16.07
2017-10-15T12:09:58.374Z,16.09
2017-10-15T12:11:05.245Z,16.14
2017-10-15T12:12:12.013Z,16.17
2017-10-15T12:13:18.778Z,16.20
2017-10-15T12:14:25.550Z,16.24
2017-10-15T12:15:32.297Z,16.27
2017-10-15T12:16:39.065Z,16.29
2017-10-15T12:17:45.840Z,16.34
2017-10-15T12:18:52.661Z,16.37
2017-10-15T12:19:59.461Z,16.40
2017-10-15T12:21:06.237Z,16.43
2017-10-15T12:22:13.033Z,16.48
2017-10-15T12:23:19.810Z,16.49
2017-10-15T12:24:26.578Z,16.52
2017-10-15T12:25:33.514Z,16.54
2017-10-15T12:26:40.324Z,16.59
2017-10-15T12:27:47.118Z,16.62
2017-10-15T12:28:53.870Z,16.66
2017-10-15T12:30:01.206Z,16.70
2017-10-15T12:31:07.497Z,16.71
2017-10-15T12:32:14.289Z,16.75
2017-10-15T12:33:21.095Z,16.79
2017-10-15T12:34:27.822Z,16.83
2017-10-15T12:35:34.585Z,16.86
2017-10-15T12:36:41.355Z,16.88
2017-10-15T12:37:48.222Z,16.91
2017-10-15T12:38:55.326Z,16.94
2017-10-15T12:40:01.699Z,16.96
2017-10-15T12:41:08.618Z,16.99
2017-10-15T12:42:15.518Z,17.03
2017-10-15T12:43:22.282Z,17.07
2017-10-15T12:44:29.046Z,17.10
2017-10-15T12:45:35.818Z,17.12
2017-10-15T12:46:42.727Z,17.14
2017-10-15T12:47:49.734Z,17.18
2017-10-15T12:48:56.517Z,17.21
2017-10-15T12:50:03.295Z,17.25
2017-10-15T12:51:10.112Z,17.28
2017-10-15T12:52:16.911Z,17.30
2017-10-15T12:53:23.666Z,17.33
2017-10-15T12:54:30.473Z,17.35
2017-10-15T12:55:37.233Z,17.38
2017-10-15T12:56:43.982Z,17.40
2017-10-15T12:57:50.729Z,17.44
2017-10-15T12:58:57.794Z,17.47
2017-10-15T13:00:04.585Z,17.50
2017-10-15T13:01:11.389Z,17.53
2017-10-15T13:02:18.182Z,17.55
2017-10-15T13:03:24.971Z,17.56
2017-10-15T13:04:31.738Z,17.60
2017-10-15T13:05:38.510Z,17.62
2017-10-15T13:06:45.374Z,17.64
2017-10-15T13:07:52.165Z,17.68
2017-10-15T13:08:58.981Z,17.71
2017-10-15T13:10:05.790Z,17.74
2017-10-15T13:11:12.586Z,17.76
2017-10-15T13:12:19.396Z,17.79
2017-10-15T13:13:26.372Z,17.80
2017-10-15T13:14:33.110Z,17.85
2017-10-15T13:15:39.873Z,17.86
2017-10-15T13:16:46.625Z,17.89
2017-10-15T13:17:53.458Z,17.91
2017-10-15T13:19:00.386Z,17.93
2017-10-15T13:20:07.135Z,17.96
2017-10-15T13:21:13.966Z,17.98
2017-10-15T13:22:20.767Z,17.99
2017-10-15T13:23:27.558Z,18.03
2017-10-15T13:24:34.390Z,18.05
2017-10-15T13:25:41.156Z,18.07
2017-10-15T13:26:47.985Z,18.10
2017-10-15T13:27:54.746Z,18.12
2017-10-15T13:29:01.594Z,18.14
2017-10-15T13:30:08.493Z,18.16
2017-10-15T13:31:15.304Z,18.18
2017-10-15T13:32:22.506Z,18.20
2017-10-15T13:33:28.801Z,18.24
2017-10-15T13:34:35.565Z,18.24
2017-10-15T13:35:42.321Z,18.26
2017-10-15T13:36:49.098Z,18.29
2017-10-15T13:37:55.911Z,18.30
2017-10-15T13:39:02.682Z,18.32
2017-10-15T13:40:09.433Z,18.35
2017-10-15T13:41:16.249Z,18.38
2017-10-15T13:42:23.074Z,18.37
2017-10-15T13:43:29.847Z,18.41
2017-10-15T13:44:36.657Z,18.42
2017-10-15T13:45:43.435Z,18.44
2017-10-15T13:46:50.439Z,18.45
2017-10-15T13:47:57.228Z,18.47
2017-10-15T13:49:04.050Z,18.50
2017-10-15T13:50:10.806Z,18.52
2017-10-15T13:51:17.569Z,18.53
2017-10-15T13:52:24.380Z,18.55
2017-10-15T13:53:31.135Z,18.57
2017-10-15T13:54:37.966Z,18.57
2017-10-15T13:55:44.774Z,18.60
2017-10-15T13:56:51.526Z,18.61
2017-10-15T13:57:58.293Z,18.63
2017-10-15T13:59:05.106Z,18.65
2017-10-15T14:00:11.891Z,18.68
2017-10-15T14:01:18.801Z,18.70
2017-10-15T14:02:25.606Z,18.70
2017-10-15T14:03:32.529Z,18.73
2017-10-15T14:04:39.293Z,18.74
2017-10-15T14:05:46.117Z,18.74
2017-10-15T14:06:52.930Z,18.77
2017-10-15T14:07:59.735Z,18.77
2017-10-15T14:09:06.732Z,18.80
2017-10-15T14:10:13.525Z,18.79
2017-10-15T14:11:20.281Z,18.82
2017-10-15T14:12:27.050Z,18.84
2017-10-15T14:13:33.842Z,18.85
2017-10-15T14:14:40.654Z,18.87
2017-10-15T14:15:47.404Z,18.88
2017-10-15T14:16:54.173Z,18.91
2017-10-15T14:18:00.993Z,18.90
2017-10-15T14:19:07.805Z,18.93
2017-10-15T14:20:14.618Z,18.94